sensor_id;sensor_type;location;lat;lon;timestamp;temperature;humidity
27890;DHT22;15238;49.082;9.102;2024-02-16T00:00:39;10.10;99.90
27890;DHT22;15238;49.082;9.102;2024-02-16T00:02:40;10.10;99.90
27890;DHT22;15238;49.082;9.102;2024-02-16T00:04:41;10.00;99.90
27890;DHT22;15238;49.082;9.102;2024-02-16T00:06:42;10.00;99.90
27890;DHT22;15238;49.082;9.102;2024-02-16T00:08:43;9.90;99.90
27890;DHT22;15238;49.082;9.102;2024-02-16T00:10:44;9.90;99.90
27890;DHT22;15238;49.082;9.102;2024-02-16T00:12:44;9.90;99.90
27890;DHT22;15238;49.082;9.102;2024-02-16T00:14:45;9.80;99.90
27890;DHT22;15238;49.082;9.102;2024-02-16T00:16:47;9.90;99.90
27890;DHT22;15238;49.082;9.102;2024-02-16T00:18:48;9.90;99.90
27890;DHT22;15238;49.082;9.102;2024-02-16T00:20:48;9.90;99.90
27890;DHT22;15238;49.082;9.102;2024-02-16T00:22:49;9.90;99.90
27890;DHT22;15238;49.082;9.102;2024-02-16T00:24:50;9.90;99.90
27890;DHT22;15238;49.082;9.102;2024-02-16T00:26:50;9.90;99.90
27890;DHT22;15238;49.082;9.102;2024-02-16T00:28:51;9.90;99.90
27890;DHT22;15238;49.082;9.102;2024-02-16T00:30:52;10.00;99.90
27890;DHT22;15238;49.082;9.102;2024-02-16T00:32:52;10.10;99.90
27890;DHT22;15238;49.082;9.102;2024-02-16T00:34:53;10.10;99.90
27890;DHT22;15238;49.082;9.102;2024-02-16T00:36:54;10.20;99.90
27890;DHT22;15238;49.082;9.102;2024-02-16T00:38:54;10.20;99.90
27890;DHT22;15238;49.082;9.102;2024-02-16T00:40:55;10.30;99.90
27890;DHT22;15238;49.082;9.102;2024-02-16T00:42:55;10.30;99.90
27890;DHT22;15238;49.082;9.102;2024-02-16T00:44:56;10.30;99.90
27890;DHT22;15238;49.082;9.102;2024-02-16T00:46:56;10.30;99.90
27890;DHT22;15238;49.082;9.102;2024-02-16T00:48:58;10.30;99.90
27890;DHT22;15238;49.082;9.102;2024-02-16T00:50:58;10.30;99.90
27890;DHT22;15238;49.082;9.102;2024-02-16T00:52:59;10.30;99.90
27890;DHT22;15238;49.082;9.102;2024-02-16T00:55:00;10.30;99.90
27890;DHT22;15238;49.082;9.102;2024-02-16T00:57:01;10.30;99.90
27890;DHT22;15238;49.082;9.102;2024-02-16T00:59:02;10.30;99.90
27890;DHT22;15238;49.082;9.102;2024-02-16T01:01:04;10.30;99.90
27890;DHT22;15238;49.082;9.102;2024-02-16T01:03:04;10.30;99.90
27890;DHT22;15238;49.082;9.102;2024-02-16T01:05:06;10.30;99.90
27890;DHT22;15238;49.082;9.102;2024-02-16T01:07:07;10.20;99.90
27890;DHT22;15238;49.082;9.102;2024-02-16T01:09:07;10.20;99.90
27890;DHT22;15238;49.082;9.102;2024-02-16T01:11:08;10.10;99.90
27890;DHT22;15238;49.082;9.102;2024-02-16T01:13:09;10.10;99.90
27890;DHT22;15238;49.082;9.102;2024-02-16T01:15:10;10.10;99.90
27890;DHT22;15238;49.082;9.102;2024-02-16T01:17:11;10.00;99.90
27890;DHT22;15238;49.082;9.102;2024-02-16T01:19:12;10.00;99.90
27890;DHT22;15238;49.082;9.102;2024-02-16T01:21:13;10.00;99.90
27890;DHT22;15238;49.082;9.102;2024-02-16T01:23:13;9.90;99.90
27890;DHT22;15238;49.082;9.102;2024-02-16T01:25:14;9.90;99.90
27890;DHT22;15238;49.082;9.102;2024-02-16T01:27:14;9.80;99.90
27890;DHT22;15238;49.082;9.102;2024-02-16T01:29:16;9.80;99.90
27890;DHT22;15238;49.082;9.102;2024-02-16T01:31:16;9.80;99.90
27890;DHT22;15238;49.082;9.102;2024-02-16T01:33:18;9.80;99.90
27890;DHT22;15238;49.082;9.102;2024-02-16T01:35:18;9.80;99.90
27890;DHT22;15238;49.082;9.102;2024-02-16T01:37:19;9.90;99.90
27890;DHT22;15238;49.082;9.102;2024-02-16T01:39:19;9.90;99.90
27890;DHT22;15238;49.082;9.102;2024-02-16T01:41:20;10.00;99.90
27890;DHT22;15238;49.082;9.102;2024-02-16T01:43:21;10.00;99.90
27890;DHT22;15238;49.082;9.102;2024-02-16T01:45:21;10.00;99.90
27890;DHT22;15238;49.082;9.102;2024-02-16T01:47:22;10.00;99.90
27890;DHT22;15238;49.082;9.102;2024-02-16T01:49:22;10.00;99.90
27890;DHT22;15238;49.082;9.102;2024-02-16T01:51:24;10.00;99.90
27890;DHT22;15238;49.082;9.102;2024-02-16T01:53:26;10.00;99.90
27890;DHT22;15238;49.082;9.102;2024-02-16T01:55:27;10.00;99.90
27890;DHT22;15238;49.082;9.102;2024-02-16T01:57:28;10.00;99.90
27890;DHT22;15238;49.082;9.102;2024-02-16T01:59:29;10.00;99.90
27890;DHT22;15238;49.082;9.102;2024-02-16T02:01:29;10.00;99.90
27890;DHT22;15238;49.082;9.102;2024-02-16T02:03:30;10.00;99.90
27890;DHT22;15238;49.082;9.102;2024-02-16T02:05:32;10.10;99.90
27890;DHT22;15238;49.082;9.102;2024-02-16T02:07:33;10.00;99.90
27890;DHT22;15238;49.082;9.102;2024-02-16T02:09:33;10.00;99.90
27890;DHT22;15238;49.082;9.102;2024-02-16T02:11:34;10.00;99.90
27890;DHT22;15238;49.082;9.102;2024-02-16T02:13:34;10.00;99.90
27890;DHT22;15238;49.082;9.102;2024-02-16T02:15:35;9.90;99.90
27890;DHT22;15238;49.082;9.102;2024-02-16T02:17:35;9.90;99.90
27890;DHT22;15238;49.082;9.102;2024-02-16T02:19:36;9.90;99.90
27890;DHT22;15238;49.082;9.102;2024-02-16T02:21:36;9.90;99.90
27890;DHT22;15238;49.082;9.102;2024-02-16T02:23:37;9.90;99.90
27890;DHT22;15238;49.082;9.102;2024-02-16T02:25:38;9.90;99.90
27890;DHT22;15238;49.082;9.102;2024-02-16T02:27:40;10.00;99.90
27890;DHT22;15238;49.082;9.102;2024-02-16T02:29:41;10.00;99.90
27890;DHT22;15238;49.082;9.102;2024-02-16T02:31:42;10.00;99.90
27890;DHT22;15238;49.082;9.102;2024-02-16T02:33:42;10.00;99.90
27890;DHT22;15238;49.082;9.102;2024-02-16T02:35:43;10.00;99.90
27890;DHT22;15238;49.082;9.102;2024-02-16T02:37:43;10.00;99.90
27890;DHT22;15238;49.082;9.102;2024-02-16T02:39:44;10.10;99.90
27890;DHT22;15238;49.082;9.102;2024-02-16T02:41:44;10.10;99.90
27890;DHT22;15238;49.082;9.102;2024-02-16T02:43:45;10.20;99.90
27890;DHT22;15238;49.082;9.102;2024-02-16T02:45:45;10.20;99.90
27890;DHT22;15238;49.082;9.102;2024-02-16T02:47:46;10.20;99.90
27890;DHT22;15238;49.082;9.102;2024-02-16T02:49:46;10.20;99.90
27890;DHT22;15238;49.082;9.102;2024-02-16T02:51:47;10.20;99.90
27890;DHT22;15238;49.082;9.102;2024-02-16T02:53:48;10.20;99.90
27890;DHT22;15238;49.082;9.102;2024-02-16T02:55:48;10.20;99.90
27890;DHT22;15238;49.082;9.102;2024-02-16T02:57:49;10.20;99.90
27890;DHT22;15238;49.082;9.102;2024-02-16T02:59:49;10.20;99.90
27890;DHT22;15238;49.082;9.102;2024-02-16T03:01:50;10.20;99.90
27890;DHT22;15238;49.082;9.102;2024-02-16T03:03:50;10.20;99.90
27890;DHT22;15238;49.082;9.102;2024-02-16T03:05:51;10.20;99.90
27890;DHT22;15238;49.082;9.102;2024-02-16T03:07:51;10.20;99.90
27890;DHT22;15238;49.082;9.102;2024-02-16T03:09:52;10.20;99.90
27890;DHT22;15238;49.082;9.102;2024-02-16T03:11:53;10.20;99.90
27890;DHT22;15238;49.082;9.102;2024-02-16T03:13:53;10.20;99.90
27890;DHT22;15238;49.082;9.102;2024-02-16T03:15:54;10.20;99.90
27890;DHT22;15238;49.082;9.102;2024-02-16T03:17:55;10.20;99.90
27890;DHT22;15238;49.082;9.102;2024-02-16T03:19:55;10.20;99.90
27890;DHT22;15238;49.082;9.102;2024-02-16T03:21:56;10.20;99.90
27890;DHT22;15238;49.082;9.102;2024-02-16T03:23:56;10.20;99.90
27890;DHT22;15238;49.082;9.102;2024-02-16T03:25:57;10.20;99.90
27890;DHT22;15238;49.082;9.102;2024-02-16T03:27:57;10.20;99.90
27890;DHT22;15238;49.082;9.102;2024-02-16T03:29:58;10.10;99.90
27890;DHT22;15238;49.082;9.102;2024-02-16T03:31:59;10.00;99.90
27890;DHT22;15238;49.082;9.102;2024-02-16T03:33:59;10.00;99.90
27890;DHT22;15238;49.082;9.102;2024-02-16T03:35:59;10.00;99.90
27890;DHT22;15238;49.082;9.102;2024-02-16T03:38:00;10.00;99.90
27890;DHT22;15238;49.082;9.102;2024-02-16T03:40:01;9.90;99.90
27890;DHT22;15238;49.082;9.102;2024-02-16T03:42:01;9.90;99.90
27890;DHT22;15238;49.082;9.102;2024-02-16T03:44:02;9.90;99.90
27890;DHT22;15238;49.082;9.102;2024-02-16T03:46:03;9.90;99.90
27890;DHT22;15238;49.082;9.102;2024-02-16T03:48:04;9.90;99.90
27890;DHT22;15238;49.082;9.102;2024-02-16T03:50:04;9.90;99.90
27890;DHT22;15238;49.082;9.102;2024-02-16T03:52:05;9.80;99.90
27890;DHT22;15238;49.082;9.102;2024-02-16T03:54:06;9.80;99.90
27890;DHT22;15238;49.082;9.102;2024-02-16T03:56:06;9.80;99.90
27890;DHT22;15238;49.082;9.102;2024-02-16T03:58:07;9.90;99.90
27890;DHT22;15238;49.082;9.102;2024-02-16T04:00:08;9.80;99.90
27890;DHT22;15238;49.082;9.102;2024-02-16T04:02:09;9.80;99.90
27890;DHT22;15238;49.082;9.102;2024-02-16T04:04:10;9.80;99.90
27890;DHT22;15238;49.082;9.102;2024-02-16T04:06:10;9.80;99.90
27890;DHT22;15238;49.082;9.102;2024-02-16T04:08:11;9.90;99.90
27890;DHT22;15238;49.082;9.102;2024-02-16T04:10:11;9.80;99.90
27890;DHT22;15238;49.082;9.102;2024-02-16T04:12:12;9.80;99.90
27890;DHT22;15238;49.082;9.102;2024-02-16T04:14:12;9.90;99.90
27890;DHT22;15238;49.082;9.102;2024-02-16T04:16:13;9.90;99.90
27890;DHT22;15238;49.082;9.102;2024-02-16T04:18:13;9.90;99.90
27890;DHT22;15238;49.082;9.102;2024-02-16T04:20:15;9.80;99.90
27890;DHT22;15238;49.082;9.102;2024-02-16T04:22:16;9.80;99.90
27890;DHT22;15238;49.082;9.102;2024-02-16T04:24:17;9.90;99.90
27890;DHT22;15238;49.082;9.102;2024-02-16T04:26:17;9.80;99.90
27890;DHT22;15238;49.082;9.102;2024-02-16T04:28:17;9.80;99.90
27890;DHT22;15238;49.082;9.102;2024-02-16T04:30:18;9.80;99.90
27890;DHT22;15238;49.082;9.102;2024-02-16T04:32:19;9.90;99.90
27890;DHT22;15238;49.082;9.102;2024-02-16T04:34:19;9.90;99.90
27890;DHT22;15238;49.082;9.102;2024-02-16T04:36:20;9.90;99.90
27890;DHT22;15238;49.082;9.102;2024-02-16T04:38:20;9.90;99.90
27890;DHT22;15238;49.082;9.102;2024-02-16T04:40:21;9.90;99.90
27890;DHT22;15238;49.082;9.102;2024-02-16T04:42:21;9.90;99.90
27890;DHT22;15238;49.082;9.102;2024-02-16T04:44:22;9.90;99.90
27890;DHT22;15238;49.082;9.102;2024-02-16T04:46:23;9.80;99.90
27890;DHT22;15238;49.082;9.102;2024-02-16T04:48:23;9.70;99.90
27890;DHT22;15238;49.082;9.102;2024-02-16T04:50:24;9.60;99.90
27890;DHT22;15238;49.082;9.102;2024-02-16T04:52:24;9.60;99.90
27890;DHT22;15238;49.082;9.102;2024-02-16T04:54:25;9.60;99.90
27890;DHT22;15238;49.082;9.102;2024-02-16T04:56:25;9.50;99.90
27890;DHT22;15238;49.082;9.102;2024-02-16T04:58:26;9.50;99.90
27890;DHT22;15238;49.082;9.102;2024-02-16T05:00:27;9.50;99.90
27890;DHT22;15238;49.082;9.102;2024-02-16T05:02:27;9.40;99.90
27890;DHT22;15238;49.082;9.102;2024-02-16T05:04:28;9.40;99.90
27890;DHT22;15238;49.082;9.102;2024-02-16T05:06:28;9.40;99.90
27890;DHT22;15238;49.082;9.102;2024-02-16T05:08:29;9.30;99.90
27890;DHT22;15238;49.082;9.102;2024-02-16T05:10:29;9.20;99.90
27890;DHT22;15238;49.082;9.102;2024-02-16T05:12:30;9.10;99.90
27890;DHT22;15238;49.082;9.102;2024-02-16T05:14:31;9.10;99.90
27890;DHT22;15238;49.082;9.102;2024-02-16T05:16:31;9.00;99.90
27890;DHT22;15238;49.082;9.102;2024-02-16T05:18:32;8.90;99.90
27890;DHT22;15238;49.082;9.102;2024-02-16T05:20:32;8.90;99.90
27890;DHT22;15238;49.082;9.102;2024-02-16T05:22:33;8.90;99.90
27890;DHT22;15238;49.082;9.102;2024-02-16T05:24:33;8.90;99.90
27890;DHT22;15238;49.082;9.102;2024-02-16T05:26:34;8.90;99.90
27890;DHT22;15238;49.082;9.102;2024-02-16T05:28:34;8.80;99.90
27890;DHT22;15238;49.082;9.102;2024-02-16T05:30:35;8.70;99.90
27890;DHT22;15238;49.082;9.102;2024-02-16T05:32:36;8.70;99.90
27890;DHT22;15238;49.082;9.102;2024-02-16T05:34:37;8.70;99.90
27890;DHT22;15238;49.082;9.102;2024-02-16T05:36:37;8.60;99.90
27890;DHT22;15238;49.082;9.102;2024-02-16T05:38:38;8.60;99.90
27890;DHT22;15238;49.082;9.102;2024-02-16T05:40:42;8.60;99.90
27890;DHT22;15238;49.082;9.102;2024-02-16T05:42:54;8.50;99.90
27890;DHT22;15238;49.082;9.102;2024-02-16T05:44:58;8.60;99.90
27890;DHT22;15238;49.082;9.102;2024-02-16T05:46:58;8.60;99.90
27890;DHT22;15238;49.082;9.102;2024-02-16T05:48:59;8.60;99.90
27890;DHT22;15238;49.082;9.102;2024-02-16T05:51:02;8.50;99.90
27890;DHT22;15238;49.082;9.102;2024-02-16T05:53:03;8.50;99.90
27890;DHT22;15238;49.082;9.102;2024-02-16T05:55:08;8.50;99.90
27890;DHT22;15238;49.082;9.102;2024-02-16T05:57:08;8.40;99.90
27890;DHT22;15238;49.082;9.102;2024-02-16T05:59:09;8.40;99.90
27890;DHT22;15238;49.082;9.102;2024-02-16T06:01:09;8.40;99.90
27890;DHT22;15238;49.082;9.102;2024-02-16T06:03:13;8.30;99.90
27890;DHT22;15238;49.082;9.102;2024-02-16T06:05:13;8.30;99.90
27890;DHT22;15238;49.082;9.102;2024-02-16T06:07:14;8.30;99.90
27890;DHT22;15238;49.082;9.102;2024-02-16T06:09:15;8.30;99.90
27890;DHT22;15238;49.082;9.102;2024-02-16T06:11:15;8.20;99.90
27890;DHT22;15238;49.082;9.102;2024-02-16T06:13:16;8.20;99.90
27890;DHT22;15238;49.082;9.102;2024-02-16T06:15:17;8.10;99.90
27890;DHT22;15238;49.082;9.102;2024-02-16T06:17:17;8.10;99.90
27890;DHT22;15238;49.082;9.102;2024-02-16T06:19:18;8.10;99.90
27890;DHT22;15238;49.082;9.102;2024-02-16T06:21:19;8.10;99.90
27890;DHT22;15238;49.082;9.102;2024-02-16T06:23:19;8.00;99.90
27890;DHT22;15238;49.082;9.102;2024-02-16T06:25:20;8.00;99.90
27890;DHT22;15238;49.082;9.102;2024-02-16T06:27:20;8.00;99.90
27890;DHT22;15238;49.082;9.102;2024-02-16T06:29:21;8.00;99.90
27890;DHT22;15238;49.082;9.102;2024-02-16T06:31:21;7.90;99.90
27890;DHT22;15238;49.082;9.102;2024-02-16T06:33:22;7.90;99.90
27890;DHT22;15238;49.082;9.102;2024-02-16T06:35:22;7.90;99.90
27890;DHT22;15238;49.082;9.102;2024-02-16T06:37:23;7.90;99.90
27890;DHT22;15238;49.082;9.102;2024-02-16T06:39:23;7.90;99.90
27890;DHT22;15238;49.082;9.102;2024-02-16T06:41:24;7.90;99.90
27890;DHT22;15238;49.082;9.102;2024-02-16T06:43:24;7.80;99.90
27890;DHT22;15238;49.082;9.102;2024-02-16T06:45:25;7.80;99.90
27890;DHT22;15238;49.082;9.102;2024-02-16T06:47:26;7.80;99.90
27890;DHT22;15238;49.082;9.102;2024-02-16T06:49:26;7.80;99.90
27890;DHT22;15238;49.082;9.102;2024-02-16T06:51:27;7.80;99.90
27890;DHT22;15238;49.082;9.102;2024-02-16T06:53:28;7.80;99.90
27890;DHT22;15238;49.082;9.102;2024-02-16T06:55:29;7.70;99.90
27890;DHT22;15238;49.082;9.102;2024-02-16T06:57:29;7.70;99.90
27890;DHT22;15238;49.082;9.102;2024-02-16T06:59:31;7.80;99.90
27890;DHT22;15238;49.082;9.102;2024-02-16T07:01:32;7.80;99.90
27890;DHT22;15238;49.082;9.102;2024-02-16T07:03:32;7.80;99.90
27890;DHT22;15238;49.082;9.102;2024-02-16T07:05:33;7.80;99.90
27890;DHT22;15238;49.082;9.102;2024-02-16T07:07:34;7.90;99.90
27890;DHT22;15238;49.082;9.102;2024-02-16T07:09:36;7.90;99.90
27890;DHT22;15238;49.082;9.102;2024-02-16T07:11:37;8.00;99.90
27890;DHT22;15238;49.082;9.102;2024-02-16T07:13:38;8.00;99.90
27890;DHT22;15238;49.082;9.102;2024-02-16T07:15:39;8.00;99.90
27890;DHT22;15238;49.082;9.102;2024-02-16T07:17:40;8.00;99.90
27890;DHT22;15238;49.082;9.102;2024-02-16T07:19:41;8.10;99.90
27890;DHT22;15238;49.082;9.102;2024-02-16T07:21:41;8.10;99.90
27890;DHT22;15238;49.082;9.102;2024-02-16T07:23:42;8.10;99.90
27890;DHT22;15238;49.082;9.102;2024-02-16T07:25:42;8.10;99.90
27890;DHT22;15238;49.082;9.102;2024-02-16T07:27:43;8.10;99.90
27890;DHT22;15238;49.082;9.102;2024-02-16T07:29:43;8.10;99.90
27890;DHT22;15238;49.082;9.102;2024-02-16T07:31:44;8.20;99.90
27890;DHT22;15238;49.082;9.102;2024-02-16T07:33:44;8.20;99.90
27890;DHT22;15238;49.082;9.102;2024-02-16T07:35:45;8.30;99.90
27890;DHT22;15238;49.082;9.102;2024-02-16T07:37:46;8.30;99.90
27890;DHT22;15238;49.082;9.102;2024-02-16T07:39:46;8.30;99.90
27890;DHT22;15238;49.082;9.102;2024-02-16T07:41:46;8.40;99.90
27890;DHT22;15238;49.082;9.102;2024-02-16T07:43:47;8.40;99.90
27890;DHT22;15238;49.082;9.102;2024-02-16T07:45:48;8.50;99.90
27890;DHT22;15238;49.082;9.102;2024-02-16T07:47:51;8.70;99.90
27890;DHT22;15238;49.082;9.102;2024-02-16T07:49:51;8.80;99.90
27890;DHT22;15238;49.082;9.102;2024-02-16T07:51:52;8.90;99.90
27890;DHT22;15238;49.082;9.102;2024-02-16T07:53:52;9.10;99.90
27890;DHT22;15238;49.082;9.102;2024-02-16T07:55:53;9.30;99.90
27890;DHT22;15238;49.082;9.102;2024-02-16T07:57:53;9.50;99.90
27890;DHT22;15238;49.082;9.102;2024-02-16T07:59:54;9.70;99.90
27890;DHT22;15238;49.082;9.102;2024-02-16T08:01:54;9.90;99.90
27890;DHT22;15238;49.082;9.102;2024-02-16T08:03:55;10.10;99.90
27890;DHT22;15238;49.082;9.102;2024-02-16T08:05:55;10.30;99.90
27890;DHT22;15238;49.082;9.102;2024-02-16T08:07:56;10.50;99.90
27890;DHT22;15238;49.082;9.102;2024-02-16T08:09:56;10.70;99.90
27890;DHT22;15238;49.082;9.102;2024-02-16T08:11:57;10.80;99.90
27890;DHT22;15238;49.082;9.102;2024-02-16T08:13:57;10.90;99.90
27890;DHT22;15238;49.082;9.102;2024-02-16T08:16:00;11.00;99.90
27890;DHT22;15238;49.082;9.102;2024-02-16T08:18:04;11.10;99.90
27890;DHT22;15238;49.082;9.102;2024-02-16T08:20:06;11.10;99.90
27890;DHT22;15238;49.082;9.102;2024-02-16T08:22:08;11.10;99.90
27890;DHT22;15238;49.082;9.102;2024-02-16T08:24:08;11.20;99.90
27890;DHT22;15238;49.082;9.102;2024-02-16T08:26:09;11.20;99.90
27890;DHT22;15238;49.082;9.102;2024-02-16T08:28:09;11.30;99.90
27890;DHT22;15238;49.082;9.102;2024-02-16T08:30:10;11.30;99.90
27890;DHT22;15238;49.082;9.102;2024-02-16T08:32:11;11.40;99.90
27890;DHT22;15238;49.082;9.102;2024-02-16T08:34:12;11.40;99.90
27890;DHT22;15238;49.082;9.102;2024-02-16T08:36:13;11.50;99.90
27890;DHT22;15238;49.082;9.102;2024-02-16T08:38:14;11.50;99.90
27890;DHT22;15238;49.082;9.102;2024-02-16T08:40:14;11.50;99.90
27890;DHT22;15238;49.082;9.102;2024-02-16T08:42:15;11.60;99.90
27890;DHT22;15238;49.082;9.102;2024-02-16T08:44:16;11.60;99.90
27890;DHT22;15238;49.082;9.102;2024-02-16T08:46:16;11.70;99.90
27890;DHT22;15238;49.082;9.102;2024-02-16T08:48:17;11.60;99.90
27890;DHT22;15238;49.082;9.102;2024-02-16T08:50:17;11.70;99.90
27890;DHT22;15238;49.082;9.102;2024-02-16T08:52:18;11.80;99.90
27890;DHT22;15238;49.082;9.102;2024-02-16T08:54:18;11.90;99.90
27890;DHT22;15238;49.082;9.102;2024-02-16T08:56:19;12.00;99.90
27890;DHT22;15238;49.082;9.102;2024-02-16T08:58:19;12.00;99.90
27890;DHT22;15238;49.082;9.102;2024-02-16T09:00:20;12.10;99.90
27890;DHT22;15238;49.082;9.102;2024-02-16T09:02:20;12.20;99.90
27890;DHT22;15238;49.082;9.102;2024-02-16T09:04:22;12.30;99.90
27890;DHT22;15238;49.082;9.102;2024-02-16T09:06:23;12.30;99.90
27890;DHT22;15238;49.082;9.102;2024-02-16T09:08:23;12.40;99.90
27890;DHT22;15238;49.082;9.102;2024-02-16T09:10:25;12.50;99.90
27890;DHT22;15238;49.082;9.102;2024-02-16T09:12:25;12.60;99.90
27890;DHT22;15238;49.082;9.102;2024-02-16T09:14:26;12.70;99.90
27890;DHT22;15238;49.082;9.102;2024-02-16T09:16:28;12.80;99.90
27890;DHT22;15238;49.082;9.102;2024-02-16T09:18:29;12.90;99.90
27890;DHT22;15238;49.082;9.102;2024-02-16T09:20:30;13.10;99.90
27890;DHT22;15238;49.082;9.102;2024-02-16T09:22:30;13.20;99.90
27890;DHT22;15238;49.082;9.102;2024-02-16T09:24:30;13.30;99.90
27890;DHT22;15238;49.082;9.102;2024-02-16T09:26:31;13.40;99.90
27890;DHT22;15238;49.082;9.102;2024-02-16T09:28:33;13.40;99.90
27890;DHT22;15238;49.082;9.102;2024-02-16T09:30:34;13.60;99.90
27890;DHT22;15238;49.082;9.102;2024-02-16T09:32:34;13.50;99.90
27890;DHT22;15238;49.082;9.102;2024-02-16T09:34:35;13.50;99.90
27890;DHT22;15238;49.082;9.102;2024-02-16T09:36:35;13.50;99.90
27890;DHT22;15238;49.082;9.102;2024-02-16T09:38:39;13.60;99.90
27890;DHT22;15238;49.082;9.102;2024-02-16T09:40:39;13.60;99.90
27890;DHT22;15238;49.082;9.102;2024-02-16T09:42:40;13.70;99.90
27890;DHT22;15238;49.082;9.102;2024-02-16T09:44:42;13.70;99.90
27890;DHT22;15238;49.082;9.102;2024-02-16T09:46:43;13.80;99.90
27890;DHT22;15238;49.082;9.102;2024-02-16T09:48:46;13.80;99.90
27890;DHT22;15238;49.082;9.102;2024-02-16T09:50:50;13.80;99.90
27890;DHT22;15238;49.082;9.102;2024-02-16T09:52:51;13.90;99.90
27890;DHT22;15238;49.082;9.102;2024-02-16T09:54:52;13.90;99.90
27890;DHT22;15238;49.082;9.102;2024-02-16T09:56:53;13.80;99.90
27890;DHT22;15238;49.082;9.102;2024-02-16T09:58:56;13.90;99.90
27890;DHT22;15238;49.082;9.102;2024-02-16T10:00:57;13.90;99.90
27890;DHT22;15238;49.082;9.102;2024-02-16T10:02:57;14.00;99.90
27890;DHT22;15238;49.082;9.102;2024-02-16T10:04:58;14.00;99.90
27890;DHT22;15238;49.082;9.102;2024-02-16T10:06:58;14.00;99.90
27890;DHT22;15238;49.082;9.102;2024-02-16T10:08:59;13.90;99.90
27890;DHT22;15238;49.082;9.102;2024-02-16T10:11:04;13.80;99.90
27890;DHT22;15238;49.082;9.102;2024-02-16T10:13:05;13.80;99.90
27890;DHT22;15238;49.082;9.102;2024-02-16T10:15:06;13.80;99.90
27890;DHT22;15238;49.082;9.102;2024-02-16T10:17:07;13.90;99.90
27890;DHT22;15238;49.082;9.102;2024-02-16T10:19:09;14.00;99.90
27890;DHT22;15238;49.082;9.102;2024-02-16T10:21:13;14.00;99.90
27890;DHT22;15238;49.082;9.102;2024-02-16T10:23:13;14.00;99.90
27890;DHT22;15238;49.082;9.102;2024-02-16T10:25:15;14.10;99.90
27890;DHT22;15238;49.082;9.102;2024-02-16T10:27:16;14.20;99.90
27890;DHT22;15238;49.082;9.102;2024-02-16T10:29:18;14.30;99.90
27890;DHT22;15238;49.082;9.102;2024-02-16T10:31:23;14.50;99.90
27890;DHT22;15238;49.082;9.102;2024-02-16T10:33:28;14.50;99.90
27890;DHT22;15238;49.082;9.102;2024-02-16T10:35:30;14.60;99.90
27890;DHT22;15238;49.082;9.102;2024-02-16T10:37:31;14.70;99.90
27890;DHT22;15238;49.082;9.102;2024-02-16T10:39:32;14.70;99.90
27890;DHT22;15238;49.082;9.102;2024-02-16T10:41:41;14.80;99.90
27890;DHT22;15238;49.082;9.102;2024-02-16T10:43:43;14.70;99.90
27890;DHT22;15238;49.082;9.102;2024-02-16T10:45:44;14.70;99.90
27890;DHT22;15238;49.082;9.102;2024-02-16T10:47:47;14.70;99.90
27890;DHT22;15238;49.082;9.102;2024-02-16T10:49:48;14.60;99.90
27890;DHT22;15238;49.082;9.102;2024-02-16T10:51:52;14.70;99.90
27890;DHT22;15238;49.082;9.102;2024-02-16T10:53:56;14.80;99.90
27890;DHT22;15238;49.082;9.102;2024-02-16T10:56:00;14.90;99.90
27890;DHT22;15238;49.082;9.102;2024-02-16T10:58:01;15.00;99.90
27890;DHT22;15238;49.082;9.102;2024-02-16T11:00:10;15.10;99.90
27890;DHT22;15238;49.082;9.102;2024-02-16T11:02:11;15.00;99.90
27890;DHT22;15238;49.082;9.102;2024-02-16T11:04:15;15.10;99.90
27890;DHT22;15238;49.082;9.102;2024-02-16T11:06:17;15.10;99.90
27890;DHT22;15238;49.082;9.102;2024-02-16T11:08:19;15.00;99.90
27890;DHT22;15238;49.082;9.102;2024-02-16T11:10:20;15.10;99.90
27890;DHT22;15238;49.082;9.102;2024-02-16T11:12:21;15.10;99.90
27890;DHT22;15238;49.082;9.102;2024-02-16T11:14:22;15.20;99.90
27890;DHT22;15238;49.082;9.102;2024-02-16T11:16:24;15.30;99.90
27890;DHT22;15238;49.082;9.102;2024-02-16T11:18:25;15.40;99.90
27890;DHT22;15238;49.082;9.102;2024-02-16T11:20:26;15.40;99.90
27890;DHT22;15238;49.082;9.102;2024-02-16T11:22:28;15.40;99.90
27890;DHT22;15238;49.082;9.102;2024-02-16T11:24:31;15.50;99.90
27890;DHT22;15238;49.082;9.102;2024-02-16T11:26:42;15.50;99.90
27890;DHT22;15238;49.082;9.102;2024-02-16T11:28:43;15.60;99.90
27890;DHT22;15238;49.082;9.102;2024-02-16T11:30:45;15.70;99.90
27890;DHT22;15238;49.082;9.102;2024-02-16T11:32:46;15.70;99.90
27890;DHT22;15238;49.082;9.102;2024-02-16T11:34:47;15.80;99.90
27890;DHT22;15238;49.082;9.102;2024-02-16T11:36:47;15.80;99.90
27890;DHT22;15238;49.082;9.102;2024-02-16T11:38:48;15.90;99.90
27890;DHT22;15238;49.082;9.102;2024-02-16T11:42:59;16.00;99.90
27890;DHT22;15238;49.082;9.102;2024-02-16T11:45:00;16.00;99.90
27890;DHT22;15238;49.082;9.102;2024-02-16T11:47:02;15.90;99.90
27890;DHT22;15238;49.082;9.102;2024-02-16T11:49:07;16.00;99.90
27890;DHT22;15238;49.082;9.102;2024-02-16T11:51:08;16.00;99.90
27890;DHT22;15238;49.082;9.102;2024-02-16T11:53:08;16.10;99.90
27890;DHT22;15238;49.082;9.102;2024-02-16T11:55:10;16.10;99.90
27890;DHT22;15238;49.082;9.102;2024-02-16T11:57:12;16.10;99.90
27890;DHT22;15238;49.082;9.102;2024-02-16T11:59:14;16.20;99.90
27890;DHT22;15238;49.082;9.102;2024-02-16T12:01:15;16.20;99.90
27890;DHT22;15238;49.082;9.102;2024-02-16T12:03:24;16.20;99.90
27890;DHT22;15238;49.082;9.102;2024-02-16T12:05:25;16.30;99.90
27890;DHT22;15238;49.082;9.102;2024-02-16T12:07:26;16.30;99.90
27890;DHT22;15238;49.082;9.102;2024-02-16T12:09:30;16.40;99.90
27890;DHT22;15238;49.082;9.102;2024-02-16T12:11:33;16.40;99.90
27890;DHT22;15238;49.082;9.102;2024-02-16T12:13:33;16.40;99.90
27890;DHT22;15238;49.082;9.102;2024-02-16T12:15:37;16.40;99.90
27890;DHT22;15238;49.082;9.102;2024-02-16T12:17:38;16.50;99.90
27890;DHT22;15238;49.082;9.102;2024-02-16T12:19:46;16.70;99.90
27890;DHT22;15238;49.082;9.102;2024-02-16T12:21:51;16.80;99.90
27890;DHT22;15238;49.082;9.102;2024-02-16T12:23:52;16.80;99.90
27890;DHT22;15238;49.082;9.102;2024-02-16T12:25:53;16.80;99.90
27890;DHT22;15238;49.082;9.102;2024-02-16T12:27:53;16.80;99.90
27890;DHT22;15238;49.082;9.102;2024-02-16T12:29:54;16.80;99.90
27890;DHT22;15238;49.082;9.102;2024-02-16T12:31:54;16.70;99.90
27890;DHT22;15238;49.082;9.102;2024-02-16T12:33:55;16.70;99.90
27890;DHT22;15238;49.082;9.102;2024-02-16T12:35:56;16.70;99.90
27890;DHT22;15238;49.082;9.102;2024-02-16T12:37:56;16.80;99.90
27890;DHT22;15238;49.082;9.102;2024-02-16T12:39:57;16.70;99.90
27890;DHT22;15238;49.082;9.102;2024-02-16T12:41:57;16.70;99.90
27890;DHT22;15238;49.082;9.102;2024-02-16T12:43:58;16.60;99.90
27890;DHT22;15238;49.082;9.102;2024-02-16T12:45:59;16.50;99.90
27890;DHT22;15238;49.082;9.102;2024-02-16T12:48:02;16.60;99.90
27890;DHT22;15238;49.082;9.102;2024-02-16T12:50:04;16.50;99.90
27890;DHT22;15238;49.082;9.102;2024-02-16T12:52:04;16.40;99.90